KLBF/LBF METAR and TAF weather

Enter ICAO airport designator
Station Type Date Time Source
KLBF METAR 2019/02/16 16:53 UTC NOAA

KLBF 161653Z AUTO 17006KT 10SM OVC007 M08/M10 A2973 RMK AO2 SLP109 T10831100


Station Type Date Time Source
KLBF Decoded METAR 2019/02/16 16:53 UTC NOAA

NORTH PLATTE REGIONAL AIRPORT , NE, United States (KLBF) 41-07N 100-40W 847M
Feb 16, 2019 - 11:53 AM EST / 2019.02.16 1653 UTC
Wind: from the S (170 degrees) at 7 MPH (6 KT):0
Visibility: 10 mile(s):0
Sky conditions: overcast
Temperature: 17.1 F (-8.3 C)
Windchill: 6 F (-14 C):1
Dew Point: 14.0 F (-10.0 C)
Relative Humidity: 87%
Pressure (altimeter): 29.73 in. Hg (1006 hPa)
ob: KLBF 161653Z AUTO 17006KT 10SM OVC007 M08/M10 A2973 RMK AO2 SLP109 T10831100
cycle: 17

Station Type Date Time Source
KLBF TAF 2019/02/16 18:30 UTC NOAA

TAF KLBF 161728Z 1618/1718 15012KT P6SM OVC008
TEMPO 1621/1623 5SM -SN OVC008
FM162300 15009KT 4SM -SN OVC010
TEMPO 1702/1705 2SM -SN BR OVC008
FM170600 32010KT 5SM BR OVC015
FM170900 32012KT P6SM BKN020 OVC050
FM171500 32013G20KT P6SM BKN050


Example: see airport list